Cacoal, Brazil
Current Conditions -  °F | °C
As of 4:00 AM on Friday 19 Dec 2014 (Local Time) from SBMN Reporting Station
Broken Clouds Broken Clouds  
Wind Chill: 77°   Ceiling: 800
Heat Index: 78°   Visibility: 5mi
Dew Point: 73°   Wind: 2mph
Humidity: 89%   Direction: 110°ESE
Pressure: 29.77"   Gusts: NA
Location:  4.15°S, 60.55°W
Report Text: SBMN 190800Z 11002KT 8000 BKN008 25/23 Q1008
Loading
Personal Weather Stations






























Interactive Weather Map New forecast layout! Learn more

10-Day Weather Forecast

Advertisements
Track Severe Weather on mobile